sensor_id;sensor_type;location;lat;lon;timestamp;P1;durP1;ratioP1;P2;durP2;ratioP2
22318;SDS011;11327;52.334;9.506;2022-07-24T00:00:56;4.95;;;3.92;;
22318;SDS011;11327;52.334;9.506;2022-07-24T00:04:18;8.00;;;7.25;;
22318;SDS011;11327;52.334;9.506;2022-07-24T00:07:39;7.10;;;6.50;;
22318;SDS011;11327;52.334;9.506;2022-07-24T00:11:01;4.35;;;3.95;;
22318;SDS011;11327;52.334;9.506;2022-07-24T00:14:22;4.40;;;3.00;;
22318;SDS011;11327;52.334;9.506;2022-07-24T00:17:43;2.67;;;1.92;;
22318;SDS011;11327;52.334;9.506;2022-07-24T00:21:04;4.42;;;2.35;;
22318;SDS011;11327;52.334;9.506;2022-07-24T00:24:25;2.40;;;2.20;;
22318;SDS011;11327;52.334;9.506;2022-07-24T00:27:46;2.55;;;2.20;;
22318;SDS011;11327;52.334;9.506;2022-07-24T00:31:07;2.35;;;1.90;;
22318;SDS011;11327;52.334;9.506;2022-07-24T00:34:28;3.02;;;2.25;;
22318;SDS011;11327;52.334;9.506;2022-07-24T00:37:49;4.05;;;2.47;;
22318;SDS011;11327;52.334;9.506;2022-07-24T00:41:11;2.90;;;2.00;;
22318;SDS011;11327;52.334;9.506;2022-07-24T00:44:32;2.27;;;1.92;;
22318;SDS011;11327;52.334;9.506;2022-07-24T00:47:53;2.80;;;2.20;;
22318;SDS011;11327;52.334;9.506;2022-07-24T00:51:14;3.08;;;2.35;;
22318;SDS011;11327;52.334;9.506;2022-07-24T00:54:35;3.12;;;2.30;;
22318;SDS011;11327;52.334;9.506;2022-07-24T00:57:56;2.67;;;2.05;;
22318;SDS011;11327;52.334;9.506;2022-07-24T01:01:17;2.98;;;2.27;;
22318;SDS011;11327;52.334;9.506;2022-07-24T01:04:39;2.60;;;2.27;;
22318;SDS011;11327;52.334;9.506;2022-07-24T01:08:00;4.45;;;2.20;;
22318;SDS011;11327;52.334;9.506;2022-07-24T01:11:22;3.33;;;2.35;;
22318;SDS011;11327;52.334;9.506;2022-07-24T01:14:43;2.85;;;2.12;;
22318;SDS011;11327;52.334;9.506;2022-07-24T01:18:04;3.15;;;2.50;;
22318;SDS011;11327;52.334;9.506;2022-07-24T01:21:25;3.67;;;2.40;;
22318;SDS011;11327;52.334;9.506;2022-07-24T01:24:46;2.40;;;2.20;;
22318;SDS011;11327;52.334;9.506;2022-07-24T01:28:09;2.75;;;2.12;;
22318;SDS011;11327;52.334;9.506;2022-07-24T01:31:30;2.25;;;2.05;;
22318;SDS011;11327;52.334;9.506;2022-07-24T01:34:51;3.58;;;2.60;;
22318;SDS011;11327;52.334;9.506;2022-07-24T01:38:12;3.85;;;2.60;;
22318;SDS011;11327;52.334;9.506;2022-07-24T01:41:36;2.40;;;2.20;;
22318;SDS011;11327;52.334;9.506;2022-07-24T01:44:57;3.77;;;2.17;;
22318;SDS011;11327;52.334;9.506;2022-07-24T01:48:18;3.52;;;2.15;;
22318;SDS011;11327;52.334;9.506;2022-07-24T01:51:39;2.33;;;2.12;;
22318;SDS011;11327;52.334;9.506;2022-07-24T01:55:00;2.75;;;2.20;;
22318;SDS011;11327;52.334;9.506;2022-07-24T01:58:21;3.30;;;2.50;;
22318;SDS011;11327;52.334;9.506;2022-07-24T02:01:42;2.67;;;2.40;;
22318;SDS011;11327;52.334;9.506;2022-07-24T02:05:04;2.27;;;2.08;;
22318;SDS011;11327;52.334;9.506;2022-07-24T02:08:25;3.37;;;2.30;;
22318;SDS011;11327;52.334;9.506;2022-07-24T02:11:47;3.75;;;2.27;;
22318;SDS011;11327;52.334;9.506;2022-07-24T02:15:08;3.58;;;2.65;;
22318;SDS011;11327;52.334;9.506;2022-07-24T02:18:30;2.58;;;2.30;;
22318;SDS011;11327;52.334;9.506;2022-07-24T02:21:51;3.12;;;2.40;;
22318;SDS011;11327;52.334;9.506;2022-07-24T02:25:12;2.80;;;2.50;;
22318;SDS011;11327;52.334;9.506;2022-07-24T02:28:33;3.27;;;2.30;;
22318;SDS011;11327;52.334;9.506;2022-07-24T02:31:54;3.40;;;2.37;;
22318;SDS011;11327;52.334;9.506;2022-07-24T02:35:15;2.92;;;2.62;;
22318;SDS011;11327;52.334;9.506;2022-07-24T02:38:37;2.70;;;2.50;;
22318;SDS011;11327;52.334;9.506;2022-07-24T02:41:58;2.92;;;2.42;;
22318;SDS011;11327;52.334;9.506;2022-07-24T02:45:19;2.85;;;2.55;;
22318;SDS011;11327;52.334;9.506;2022-07-24T02:48:40;2.85;;;2.17;;
22318;SDS011;11327;52.334;9.506;2022-07-24T02:52:02;3.17;;;2.45;;
22318;SDS011;11327;52.334;9.506;2022-07-24T02:55:23;3.42;;;2.60;;
22318;SDS011;11327;52.334;9.506;2022-07-24T02:58:44;5.10;;;2.80;;
22318;SDS011;11327;52.334;9.506;2022-07-24T03:02:06;2.67;;;2.42;;
22318;SDS011;11327;52.334;9.506;2022-07-24T03:05:27;3.98;;;2.45;;
22318;SDS011;11327;52.334;9.506;2022-07-24T03:08:48;4.20;;;2.67;;
22318;SDS011;11327;52.334;9.506;2022-07-24T03:12:09;3.58;;;2.45;;
22318;SDS011;11327;52.334;9.506;2022-07-24T03:15:30;2.77;;;2.47;;
22318;SDS011;11327;52.334;9.506;2022-07-24T03:18:51;3.30;;;2.37;;
22318;SDS011;11327;52.334;9.506;2022-07-24T03:22:12;3.83;;;3.02;;
22318;SDS011;11327;52.334;9.506;2022-07-24T03:25:33;3.08;;;2.42;;
22318;SDS011;11327;52.334;9.506;2022-07-24T03:28:55;4.15;;;2.72;;
22318;SDS011;11327;52.334;9.506;2022-07-24T03:32:16;3.15;;;2.60;;
22318;SDS011;11327;52.334;9.506;2022-07-24T03:35:37;2.92;;;2.60;;
22318;SDS011;11327;52.334;9.506;2022-07-24T03:38:58;3.35;;;2.90;;
22318;SDS011;11327;52.334;9.506;2022-07-24T03:42:19;3.15;;;2.30;;
22318;SDS011;11327;52.334;9.506;2022-07-24T03:45:40;3.47;;;2.60;;
22318;SDS011;11327;52.334;9.506;2022-07-24T03:49:01;3.47;;;2.90;;
22318;SDS011;11327;52.334;9.506;2022-07-24T03:52:23;3.92;;;2.80;;
22318;SDS011;11327;52.334;9.506;2022-07-24T03:55:44;3.10;;;2.52;;
22318;SDS011;11327;52.334;9.506;2022-07-24T03:59:05;3.70;;;2.70;;
22318;SDS011;11327;52.334;9.506;2022-07-24T04:02:26;3.15;;;2.65;;
22318;SDS011;11327;52.334;9.506;2022-07-24T04:05:47;2.90;;;2.58;;
22318;SDS011;11327;52.334;9.506;2022-07-24T04:09:08;3.10;;;2.80;;
22318;SDS011;11327;52.334;9.506;2022-07-24T04:12:30;3.65;;;3.00;;
22318;SDS011;11327;52.334;9.506;2022-07-24T04:15:51;2.95;;;2.35;;
22318;SDS011;11327;52.334;9.506;2022-07-24T04:19:12;3.00;;;2.45;;
22318;SDS011;11327;52.334;9.506;2022-07-24T04:22:34;3.70;;;2.80;;
22318;SDS011;11327;52.334;9.506;2022-07-24T04:25:55;3.35;;;2.87;;
22318;SDS011;11327;52.334;9.506;2022-07-24T04:29:16;4.97;;;3.02;;
22318;SDS011;11327;52.334;9.506;2022-07-24T04:32:37;3.27;;;2.77;;
22318;SDS011;11327;52.334;9.506;2022-07-24T04:35:58;3.05;;;2.75;;
22318;SDS011;11327;52.334;9.506;2022-07-24T04:39:19;3.10;;;2.60;;
22318;SDS011;11327;52.334;9.506;2022-07-24T04:42:40;3.87;;;3.20;;
22318;SDS011;11327;52.334;9.506;2022-07-24T04:46:01;3.77;;;2.60;;
22318;SDS011;11327;52.334;9.506;2022-07-24T04:49:22;3.90;;;3.00;;
22318;SDS011;11327;52.334;9.506;2022-07-24T04:52:44;3.17;;;2.87;;
22318;SDS011;11327;52.334;9.506;2022-07-24T04:56:05;4.62;;;2.85;;
22318;SDS011;11327;52.334;9.506;2022-07-24T04:59:26;3.60;;;2.70;;
22318;SDS011;11327;52.334;9.506;2022-07-24T05:02:47;3.20;;;2.50;;
22318;SDS011;11327;52.334;9.506;2022-07-24T05:06:08;3.72;;;2.50;;
22318;SDS011;11327;52.334;9.506;2022-07-24T05:09:29;5.12;;;2.67;;
22318;SDS011;11327;52.334;9.506;2022-07-24T05:12:50;3.60;;;2.50;;
22318;SDS011;11327;52.334;9.506;2022-07-24T05:16:11;2.77;;;2.40;;
22318;SDS011;11327;52.334;9.506;2022-07-24T05:19:33;4.08;;;2.60;;
22318;SDS011;11327;52.334;9.506;2022-07-24T05:22:53;4.58;;;2.90;;
22318;SDS011;11327;52.334;9.506;2022-07-24T05:26:15;3.52;;;2.75;;
22318;SDS011;11327;52.334;9.506;2022-07-24T05:29:36;4.78;;;2.85;;
22318;SDS011;11327;52.334;9.506;2022-07-24T05:32:57;4.20;;;2.92;;
22318;SDS011;11327;52.334;9.506;2022-07-24T05:36:18;4.47;;;2.98;;
22318;SDS011;11327;52.334;9.506;2022-07-24T05:39:39;5.03;;;2.80;;
22318;SDS011;11327;52.334;9.506;2022-07-24T05:43:00;3.58;;;2.62;;
22318;SDS011;11327;52.334;9.506;2022-07-24T05:46:21;3.22;;;2.45;;
22318;SDS011;11327;52.334;9.506;2022-07-24T05:49:42;3.17;;;2.52;;
22318;SDS011;11327;52.334;9.506;2022-07-24T05:53:04;2.67;;;2.10;;
22318;SDS011;11327;52.334;9.506;2022-07-24T05:56:25;2.75;;;2.33;;
22318;SDS011;11327;52.334;9.506;2022-07-24T05:59:46;3.27;;;2.37;;
22318;SDS011;11327;52.334;9.506;2022-07-24T06:03:07;3.25;;;2.60;;
22318;SDS011;11327;52.334;9.506;2022-07-24T06:06:28;4.42;;;2.30;;
22318;SDS011;11327;52.334;9.506;2022-07-24T06:09:49;4.78;;;2.40;;
22318;SDS011;11327;52.334;9.506;2022-07-24T06:13:12;3.47;;;2.37;;
22318;SDS011;11327;52.334;9.506;2022-07-24T06:16:33;2.33;;;2.00;;
22318;SDS011;11327;52.334;9.506;2022-07-24T06:19:54;2.37;;;2.05;;
22318;SDS011;11327;52.334;9.506;2022-07-24T06:23:15;2.55;;;1.90;;
22318;SDS011;11327;52.334;9.506;2022-07-24T06:26:36;3.60;;;1.70;;
22318;SDS011;11327;52.334;9.506;2022-07-24T06:29:57;2.20;;;1.80;;
22318;SDS011;11327;52.334;9.506;2022-07-24T06:33:18;2.33;;;1.92;;
22318;SDS011;11327;52.334;9.506;2022-07-24T06:36:39;3.08;;;2.12;;
22318;SDS011;11327;52.334;9.506;2022-07-24T06:40:00;2.40;;;1.70;;
22318;SDS011;11327;52.334;9.506;2022-07-24T06:43:21;2.30;;;1.75;;
22318;SDS011;11327;52.334;9.506;2022-07-24T06:46:42;2.62;;;1.82;;
22318;SDS011;11327;52.334;9.506;2022-07-24T06:50:04;3.55;;;1.77;;
22318;SDS011;11327;52.334;9.506;2022-07-24T06:53:25;2.75;;;1.80;;
22318;SDS011;11327;52.334;9.506;2022-07-24T06:56:46;1.60;;;1.50;;
22318;SDS011;11327;52.334;9.506;2022-07-24T07:00:08;2.47;;;1.67;;
22318;SDS011;11327;52.334;9.506;2022-07-24T07:03:30;2.77;;;1.80;;
22318;SDS011;11327;52.334;9.506;2022-07-24T07:06:51;4.85;;;1.62;;
22318;SDS011;11327;52.334;9.506;2022-07-24T07:10:12;1.98;;;1.77;;
22318;SDS011;11327;52.334;9.506;2022-07-24T07:13:33;2.55;;;2.00;;
22318;SDS011;11327;52.334;9.506;2022-07-24T07:16:54;2.50;;;2.27;;
22318;SDS011;11327;52.334;9.506;2022-07-24T07:20:15;2.85;;;1.90;;
22318;SDS011;11327;52.334;9.506;2022-07-24T07:23:37;2.58;;;2.10;;
22318;SDS011;11327;52.334;9.506;2022-07-24T07:26:58;2.50;;;2.00;;
22318;SDS011;11327;52.334;9.506;2022-07-24T07:30:19;3.00;;;2.17;;
22318;SDS011;11327;52.334;9.506;2022-07-24T07:33:40;3.58;;;1.90;;
22318;SDS011;11327;52.334;9.506;2022-07-24T07:37:01;3.47;;;2.20;;
22318;SDS011;11327;52.334;9.506;2022-07-24T07:40:23;3.90;;;2.22;;
22318;SDS011;11327;52.334;9.506;2022-07-24T07:43:46;4.10;;;2.05;;
22318;SDS011;11327;52.334;9.506;2022-07-24T07:47:09;3.67;;;2.50;;
22318;SDS011;11327;52.334;9.506;2022-07-24T07:50:30;1.80;;;1.65;;
22318;SDS011;11327;52.334;9.506;2022-07-24T07:53:51;4.15;;;2.10;;
22318;SDS011;11327;52.334;9.506;2022-07-24T07:57:12;3.30;;;2.30;;
22318;SDS011;11327;52.334;9.506;2022-07-24T08:00:33;3.40;;;2.08;;
22318;SDS011;11327;52.334;9.506;2022-07-24T08:03:55;4.20;;;2.60;;
22318;SDS011;11327;52.334;9.506;2022-07-24T08:07:16;4.37;;;2.30;;
22318;SDS011;11327;52.334;9.506;2022-07-24T08:10:37;3.42;;;2.20;;
22318;SDS011;11327;52.334;9.506;2022-07-24T08:13:58;2.80;;;2.50;;
22318;SDS011;11327;52.334;9.506;2022-07-24T08:17:19;3.15;;;2.35;;
22318;SDS011;11327;52.334;9.506;2022-07-24T08:20:40;3.20;;;2.50;;
22318;SDS011;11327;52.334;9.506;2022-07-24T08:24:03;2.90;;;2.20;;
22318;SDS011;11327;52.334;9.506;2022-07-24T08:27:25;3.08;;;2.67;;
22318;SDS011;11327;52.334;9.506;2022-07-24T08:30:46;3.17;;;2.50;;
22318;SDS011;11327;52.334;9.506;2022-07-24T08:34:07;4.15;;;2.60;;
22318;SDS011;11327;52.334;9.506;2022-07-24T08:37:28;3.25;;;2.92;;
22318;SDS011;11327;52.334;9.506;2022-07-24T08:40:49;2.67;;;2.47;;
22318;SDS011;11327;52.334;9.506;2022-07-24T08:44:11;3.75;;;2.75;;
22318;SDS011;11327;52.334;9.506;2022-07-24T08:47:32;6.17;;;2.75;;
22318;SDS011;11327;52.334;9.506;2022-07-24T08:50:53;3.45;;;2.85;;
22318;SDS011;11327;52.334;9.506;2022-07-24T08:54:16;3.62;;;2.98;;
22318;SDS011;11327;52.334;9.506;2022-07-24T08:57:37;3.25;;;2.80;;
22318;SDS011;11327;52.334;9.506;2022-07-24T09:00:58;4.00;;;2.90;;
22318;SDS011;11327;52.334;9.506;2022-07-24T09:11:32;4.12;;;3.25;;
22318;SDS011;11327;52.334;9.506;2022-07-24T09:14:55;3.67;;;2.87;;
22318;SDS011;11327;52.334;9.506;2022-07-24T09:18:30;4.15;;;3.55;;
22318;SDS011;11327;52.334;9.506;2022-07-24T09:21:52;5.28;;;4.45;;
22318;SDS011;11327;52.334;9.506;2022-07-24T09:28:52;5.03;;;4.30;;
22318;SDS011;11327;52.334;9.506;2022-07-24T09:32:11;4.58;;;3.60;;
22318;SDS011;11327;52.334;9.506;2022-07-24T09:35:40;5.35;;;4.40;;
22318;SDS011;11327;52.334;9.506;2022-07-24T09:39:02;5.22;;;4.28;;
22318;SDS011;11327;52.334;9.506;2022-07-24T09:42:30;5.55;;;4.30;;
22318;SDS011;11327;52.334;9.506;2022-07-24T09:46:00;8.70;;;6.58;;
22318;SDS011;11327;52.334;9.506;2022-07-24T09:49:23;6.75;;;6.10;;
22318;SDS011;11327;52.334;9.506;2022-07-24T09:52:45;6.83;;;6.15;;
22318;SDS011;11327;52.334;9.506;2022-07-24T09:56:10;6.47;;;5.50;;
22318;SDS011;11327;52.334;9.506;2022-07-24T09:59:33;5.10;;;4.55;;
22318;SDS011;11327;52.334;9.506;2022-07-24T10:02:57;5.60;;;4.50;;
22318;SDS011;11327;52.334;9.506;2022-07-24T10:06:21;4.85;;;4.45;;
22318;SDS011;11327;52.334;9.506;2022-07-24T10:09:49;5.03;;;4.35;;
22318;SDS011;11327;52.334;9.506;2022-07-24T10:13:12;5.97;;;4.28;;
22318;SDS011;11327;52.334;9.506;2022-07-24T10:16:33;5.55;;;4.55;;
22318;SDS011;11327;52.334;9.506;2022-07-24T10:19:58;5.35;;;4.85;;
22318;SDS011;11327;52.334;9.506;2022-07-24T10:23:25;5.55;;;5.03;;
22318;SDS011;11327;52.334;9.506;2022-07-24T10:26:49;5.90;;;4.95;;
22318;SDS011;11327;52.334;9.506;2022-07-24T10:30:12;5.87;;;5.20;;
22318;SDS011;11327;52.334;9.506;2022-07-24T10:33:34;5.53;;;4.92;;
22318;SDS011;11327;52.334;9.506;2022-07-24T10:44:18;5.70;;;5.20;;
22318;SDS011;11327;52.334;9.506;2022-07-24T10:47:37;5.37;;;4.87;;
22318;SDS011;11327;52.334;9.506;2022-07-24T10:54:28;5.75;;;5.08;;
22318;SDS011;11327;52.334;9.506;2022-07-24T11:04:49;5.42;;;4.92;;
22318;SDS011;11327;52.334;9.506;2022-07-24T11:12:02;5.70;;;5.20;;
22318;SDS011;11327;52.334;9.506;2022-07-24T11:15:13;5.50;;;5.00;;
22318;SDS011;11327;52.334;9.506;2022-07-24T11:22:17;8.15;;;5.28;;
22318;SDS011;11327;52.334;9.506;2022-07-24T11:25:39;5.70;;;4.80;;
22318;SDS011;11327;52.334;9.506;2022-07-24T11:29:09;5.37;;;4.58;;
22318;SDS011;11327;52.334;9.506;2022-07-24T11:32:32;6.22;;;4.20;;
22318;SDS011;11327;52.334;9.506;2022-07-24T11:35:53;5.25;;;4.75;;
22318;SDS011;11327;52.334;9.506;2022-07-24T11:39:14;5.72;;;4.70;;
22318;SDS011;11327;52.334;9.506;2022-07-24T11:42:36;6.35;;;5.25;;
22318;SDS011;11327;52.334;9.506;2022-07-24T11:45:57;6.40;;;4.50;;
22318;SDS011;11327;52.334;9.506;2022-07-24T11:49:18;5.37;;;4.50;;
22318;SDS011;11327;52.334;9.506;2022-07-24T11:52:40;5.45;;;4.50;;
22318;SDS011;11327;52.334;9.506;2022-07-24T11:56:02;5.70;;;4.58;;
22318;SDS011;11327;52.334;9.506;2022-07-24T11:59:25;4.78;;;4.35;;
22318;SDS011;11327;52.334;9.506;2022-07-24T12:02:48;4.70;;;4.20;;
22318;SDS011;11327;52.334;9.506;2022-07-24T12:06:12;4.97;;;4.47;;
22318;SDS011;11327;52.334;9.506;2022-07-24T12:09:44;5.90;;;4.50;;
22318;SDS011;11327;52.334;9.506;2022-07-24T12:13:13;8.58;;;4.80;;
22318;SDS011;11327;52.334;9.506;2022-07-24T12:16:34;5.45;;;4.58;;
22318;SDS011;11327;52.334;9.506;2022-07-24T12:19:55;5.15;;;4.35;;
22318;SDS011;11327;52.334;9.506;2022-07-24T12:23:18;5.65;;;4.40;;
22318;SDS011;11327;52.334;9.506;2022-07-24T12:33:53;4.80;;;4.33;;
22318;SDS011;11327;52.334;9.506;2022-07-24T12:37:18;5.33;;;4.55;;
22318;SDS011;11327;52.334;9.506;2022-07-24T12:40:41;4.97;;;4.50;;
22318;SDS011;11327;52.334;9.506;2022-07-24T12:44:03;5.00;;;4.60;;
22318;SDS011;11327;52.334;9.506;2022-07-24T12:47:25;6.33;;;4.80;;
22318;SDS011;11327;52.334;9.506;2022-07-24T12:51:05;5.15;;;4.65;;
22318;SDS011;11327;52.334;9.506;2022-07-24T12:54:32;5.08;;;4.58;;
22318;SDS011;11327;52.334;9.506;2022-07-24T12:58:01;5.58;;;4.60;;
22318;SDS011;11327;52.334;9.506;2022-07-24T13:01:25;4.85;;;4.45;;
22318;SDS011;11327;52.334;9.506;2022-07-24T13:04:49;5.22;;;4.72;;
22318;SDS011;11327;52.334;9.506;2022-07-24T13:08:12;5.20;;;4.70;;
22318;SDS011;11327;52.334;9.506;2022-07-24T13:11:33;5.20;;;4.70;;
22318;SDS011;11327;52.334;9.506;2022-07-24T13:14:55;5.80;;;4.97;;
22318;SDS011;11327;52.334;9.506;2022-07-24T13:18:16;4.83;;;4.42;;
22318;SDS011;11327;52.334;9.506;2022-07-24T13:21:37;5.70;;;4.92;;
22318;SDS011;11327;52.334;9.506;2022-07-24T13:24:59;5.70;;;5.17;;
22318;SDS011;11327;52.334;9.506;2022-07-24T13:28:20;5.53;;;4.90;;
22318;SDS011;11327;52.334;9.506;2022-07-24T13:31:41;6.08;;;4.75;;
22318;SDS011;11327;52.334;9.506;2022-07-24T13:35:02;6.62;;;4.78;;
22318;SDS011;11327;52.334;9.506;2022-07-24T13:38:23;6.62;;;5.05;;
22318;SDS011;11327;52.334;9.506;2022-07-24T13:41:44;5.90;;;5.30;;
22318;SDS011;11327;52.334;9.506;2022-07-24T13:45:06;6.08;;;4.95;;
22318;SDS011;11327;52.334;9.506;2022-07-24T13:48:27;5.30;;;4.80;;
22318;SDS011;11327;52.334;9.506;2022-07-24T13:51:49;5.80;;;4.87;;
22318;SDS011;11327;52.334;9.506;2022-07-24T13:55:10;5.42;;;4.60;;
22318;SDS011;11327;52.334;9.506;2022-07-24T13:58:31;5.62;;;4.87;;
22318;SDS011;11327;52.334;9.506;2022-07-24T14:01:54;5.55;;;4.85;;
22318;SDS011;11327;52.334;9.506;2022-07-24T14:05:15;5.37;;;4.87;;
22318;SDS011;11327;52.334;9.506;2022-07-24T14:08:37;5.80;;;5.20;;
22318;SDS011;11327;52.334;9.506;2022-07-24T14:11:59;5.33;;;4.83;;
22318;SDS011;11327;52.334;9.506;2022-07-24T14:15:20;5.42;;;4.90;;
22318;SDS011;11327;52.334;9.506;2022-07-24T14:18:41;6.03;;;5.12;;
22318;SDS011;11327;52.334;9.506;2022-07-24T14:22:02;4.95;;;4.35;;
22318;SDS011;11327;52.334;9.506;2022-07-24T14:25:23;6.05;;;4.58;;
22318;SDS011;11327;52.334;9.506;2022-07-24T14:28:44;5.70;;;5.10;;
22318;SDS011;11327;52.334;9.506;2022-07-24T14:32:05;6.05;;;5.40;;
22318;SDS011;11327;52.334;9.506;2022-07-24T14:35:26;6.12;;;4.92;;
22318;SDS011;11327;52.334;9.506;2022-07-24T14:38:47;5.20;;;4.70;;
22318;SDS011;11327;52.334;9.506;2022-07-24T14:42:08;5.85;;;4.65;;
22318;SDS011;11327;52.334;9.506;2022-07-24T14:45:30;6.37;;;5.20;;
22318;SDS011;11327;52.334;9.506;2022-07-24T14:48:51;5.40;;;4.90;;
22318;SDS011;11327;52.334;9.506;2022-07-24T14:52:12;5.30;;;4.80;;
22318;SDS011;11327;52.334;9.506;2022-07-24T14:55:34;5.40;;;4.90;;
22318;SDS011;11327;52.334;9.506;2022-07-24T14:58:55;5.60;;;5.10;;
22318;SDS011;11327;52.334;9.506;2022-07-24T15:02:15;6.28;;;4.72;;
22318;SDS011;11327;52.334;9.506;2022-07-24T15:05:36;5.90;;;5.40;;
22318;SDS011;11327;52.334;9.506;2022-07-24T15:08:58;7.00;;;5.00;;
22318;SDS011;11327;52.334;9.506;2022-07-24T15:12:19;5.35;;;4.83;;
22318;SDS011;11327;52.334;9.506;2022-07-24T15:15:40;5.20;;;4.70;;
22318;SDS011;11327;52.334;9.506;2022-07-24T15:19:01;5.45;;;4.95;;
22318;SDS011;11327;52.334;9.506;2022-07-24T15:22:22;5.12;;;4.72;;
22318;SDS011;11327;52.334;9.506;2022-07-24T15:25:43;5.33;;;4.83;;
22318;SDS011;11327;52.334;9.506;2022-07-24T15:29:04;5.20;;;4.70;;
22318;SDS011;11327;52.334;9.506;2022-07-24T15:32:26;5.65;;;5.12;;
22318;SDS011;11327;52.334;9.506;2022-07-24T15:35:47;6.05;;;4.83;;
22318;SDS011;11327;52.334;9.506;2022-07-24T15:39:08;5.08;;;4.58;;
22318;SDS011;11327;52.334;9.506;2022-07-24T15:42:30;5.40;;;4.50;;
22318;SDS011;11327;52.334;9.506;2022-07-24T15:45:51;4.75;;;4.25;;
22318;SDS011;11327;52.334;9.506;2022-07-24T15:49:12;5.58;;;4.78;;
22318;SDS011;11327;52.334;9.506;2022-07-24T15:52:34;5.87;;;4.75;;
22318;SDS011;11327;52.334;9.506;2022-07-24T15:55:55;5.05;;;4.50;;
22318;SDS011;11327;52.334;9.506;2022-07-24T15:59:16;4.90;;;4.47;;
22318;SDS011;11327;52.334;9.506;2022-07-24T16:02:37;4.65;;;4.17;;
22318;SDS011;11327;52.334;9.506;2022-07-24T16:05:57;5.45;;;4.80;;
22318;SDS011;11327;52.334;9.506;2022-07-24T16:09:18;5.22;;;4.80;;
22318;SDS011;11327;52.334;9.506;2022-07-24T16:12:40;5.53;;;4.97;;
22318;SDS011;11327;52.334;9.506;2022-07-24T16:16:01;5.90;;;4.55;;
22318;SDS011;11327;52.334;9.506;2022-07-24T16:19:22;5.10;;;4.60;;
22318;SDS011;11327;52.334;9.506;2022-07-24T16:22:43;5.53;;;5.03;;
22318;SDS011;11327;52.334;9.506;2022-07-24T16:26:04;5.40;;;4.90;;
22318;SDS011;11327;52.334;9.506;2022-07-24T16:29:27;5.20;;;4.80;;
22318;SDS011;11327;52.334;9.506;2022-07-24T16:32:47;5.62;;;4.47;;
22318;SDS011;11327;52.334;9.506;2022-07-24T16:36:09;5.55;;;5.05;;
22318;SDS011;11327;52.334;9.506;2022-07-24T16:39:30;5.55;;;4.92;;
22318;SDS011;11327;52.334;9.506;2022-07-24T16:42:51;5.62;;;4.62;;
22318;SDS011;11327;52.334;9.506;2022-07-24T16:46:12;5.30;;;4.80;;
22318;SDS011;11327;52.334;9.506;2022-07-24T16:49:34;5.10;;;4.62;;
22318;SDS011;11327;52.334;9.506;2022-07-24T16:52:55;5.35;;;4.85;;
22318;SDS011;11327;52.334;9.506;2022-07-24T16:56:16;5.33;;;4.80;;
22318;SDS011;11327;52.334;9.506;2022-07-24T16:59:37;6.15;;;5.55;;
22318;SDS011;11327;52.334;9.506;2022-07-24T17:02:58;6.10;;;5.50;;
22318;SDS011;11327;52.334;9.506;2022-07-24T17:06:19;5.40;;;4.90;;
22318;SDS011;11327;52.334;9.506;2022-07-24T17:09:40;5.87;;;4.95;;
22318;SDS011;11327;52.334;9.506;2022-07-24T17:13:01;5.67;;;4.80;;
22318;SDS011;11327;52.334;9.506;2022-07-24T17:16:22;6.25;;;4.90;;
22318;SDS011;11327;52.334;9.506;2022-07-24T17:19:45;5.25;;;4.75;;
22318;SDS011;11327;52.334;9.506;2022-07-24T17:23:07;5.47;;;4.78;;
22318;SDS011;11327;52.334;9.506;2022-07-24T17:26:30;5.80;;;4.67;;
22318;SDS011;11327;52.334;9.506;2022-07-24T17:29:51;5.45;;;4.70;;
22318;SDS011;11327;52.334;9.506;2022-07-24T17:33:13;5.15;;;4.65;;
22318;SDS011;11327;52.334;9.506;2022-07-24T17:36:34;5.00;;;4.50;;
22318;SDS011;11327;52.334;9.506;2022-07-24T17:39:55;5.17;;;4.67;;
22318;SDS011;11327;52.334;9.506;2022-07-24T17:43:16;4.83;;;4.37;;
22318;SDS011;11327;52.334;9.506;2022-07-24T17:46:37;5.08;;;4.55;;
22318;SDS011;11327;52.334;9.506;2022-07-24T17:49:58;5.03;;;4.53;;
22318;SDS011;11327;52.334;9.506;2022-07-24T17:53:19;5.55;;;5.00;;
22318;SDS011;11327;52.334;9.506;2022-07-24T17:56:40;7.72;;;4.85;;
22318;SDS011;11327;52.334;9.506;2022-07-24T18:00:03;4.67;;;4.28;;
22318;SDS011;11327;52.334;9.506;2022-07-24T18:03:26;5.20;;;4.70;;
22318;SDS011;11327;52.334;9.506;2022-07-24T18:06:47;5.92;;;4.45;;
22318;SDS011;11327;52.334;9.506;2022-07-24T18:10:11;5.72;;;4.95;;
22318;SDS011;11327;52.334;9.506;2022-07-24T18:13:33;6.45;;;5.40;;
22318;SDS011;11327;52.334;9.506;2022-07-24T18:16:54;5.28;;;4.78;;
22318;SDS011;11327;52.334;9.506;2022-07-24T18:20:15;5.05;;;4.53;;
22318;SDS011;11327;52.334;9.506;2022-07-24T18:23:36;5.28;;;4.78;;
22318;SDS011;11327;52.334;9.506;2022-07-24T18:26:58;5.47;;;4.70;;
22318;SDS011;11327;52.334;9.506;2022-07-24T18:30:19;5.30;;;4.62;;
22318;SDS011;11327;52.334;9.506;2022-07-24T18:33:40;5.22;;;4.70;;
22318;SDS011;11327;52.334;9.506;2022-07-24T18:37:01;6.30;;;5.30;;
22318;SDS011;11327;52.334;9.506;2022-07-24T18:40:23;5.58;;;5.08;;
22318;SDS011;11327;52.334;9.506;2022-07-24T18:43:44;5.15;;;4.65;;
22318;SDS011;11327;52.334;9.506;2022-07-24T18:47:05;5.92;;;5.42;;
22318;SDS011;11327;52.334;9.506;2022-07-24T18:50:26;5.25;;;4.75;;
22318;SDS011;11327;52.334;9.506;2022-07-24T18:53:47;5.05;;;4.55;;
22318;SDS011;11327;52.334;9.506;2022-07-24T18:57:10;5.00;;;4.50;;
22318;SDS011;11327;52.334;9.506;2022-07-24T19:00:31;5.33;;;4.75;;
22318;SDS011;11327;52.334;9.506;2022-07-24T19:03:52;5.17;;;4.67;;
22318;SDS011;11327;52.334;9.506;2022-07-24T19:07:14;5.28;;;4.65;;
22318;SDS011;11327;52.334;9.506;2022-07-24T19:10:35;5.17;;;4.45;;
22318;SDS011;11327;52.334;9.506;2022-07-24T19:13:56;5.28;;;4.78;;
22318;SDS011;11327;52.334;9.506;2022-07-24T19:17:17;5.78;;;5.00;;
22318;SDS011;11327;52.334;9.506;2022-07-24T19:20:38;5.90;;;4.80;;
22318;SDS011;11327;52.334;9.506;2022-07-24T19:23:59;5.12;;;4.55;;
22318;SDS011;11327;52.334;9.506;2022-07-24T19:27:21;5.22;;;4.72;;
22318;SDS011;11327;52.334;9.506;2022-07-24T19:30:42;5.20;;;4.70;;
22318;SDS011;11327;52.334;9.506;2022-07-24T19:34:03;5.30;;;4.80;;
22318;SDS011;11327;52.334;9.506;2022-07-24T19:37:24;5.35;;;4.70;;
22318;SDS011;11327;52.334;9.506;2022-07-24T19:40:45;5.62;;;5.00;;
22318;SDS011;11327;52.334;9.506;2022-07-24T19:44:06;6.67;;;5.87;;
22318;SDS011;11327;52.334;9.506;2022-07-24T19:47:28;9.88;;;6.58;;
22318;SDS011;11327;52.334;9.506;2022-07-24T19:50:49;7.80;;;5.62;;
22318;SDS011;11327;52.334;9.506;2022-07-24T19:54:10;9.25;;;5.90;;
22318;SDS011;11327;52.334;9.506;2022-07-24T19:57:31;12.30;;;6.30;;
22318;SDS011;11327;52.334;9.506;2022-07-24T20:00:52;17.73;;;7.25;;
22318;SDS011;11327;52.334;9.506;2022-07-24T20:04:13;18.55;;;7.67;;
22318;SDS011;11327;52.334;9.506;2022-07-24T20:07:34;12.15;;;6.40;;
22318;SDS011;11327;52.334;9.506;2022-07-24T20:10:56;13.28;;;6.75;;
22318;SDS011;11327;52.334;9.506;2022-07-24T20:14:17;17.17;;;7.55;;
22318;SDS011;11327;52.334;9.506;2022-07-24T20:17:38;12.45;;;7.25;;
22318;SDS011;11327;52.334;9.506;2022-07-24T20:21:00;10.58;;;7.03;;
22318;SDS011;11327;52.334;9.506;2022-07-24T20:24:21;16.02;;;6.62;;
22318;SDS011;11327;52.334;9.506;2022-07-24T20:27:42;11.22;;;6.87;;
22318;SDS011;11327;52.334;9.506;2022-07-24T20:31:04;11.25;;;6.67;;
22318;SDS011;11327;52.334;9.506;2022-07-24T20:34:25;17.82;;;7.87;;
22318;SDS011;11327;52.334;9.506;2022-07-24T20:37:46;23.07;;;7.28;;
22318;SDS011;11327;52.334;9.506;2022-07-24T20:41:07;20.25;;;7.00;;
22318;SDS011;11327;52.334;9.506;2022-07-24T20:44:28;24.05;;;7.42;;
22318;SDS011;11327;52.334;9.506;2022-07-24T20:47:49;20.62;;;7.75;;
22318;SDS011;11327;52.334;9.506;2022-07-24T20:51:10;16.27;;;7.25;;
22318;SDS011;11327;52.334;9.506;2022-07-24T20:54:31;17.70;;;7.50;;
22318;SDS011;11327;52.334;9.506;2022-07-24T20:57:52;23.12;;;7.85;;